createdAt,value
2016-06-09T05:20:36.172Z,7968
2016-06-09T05:21:28.754Z,8372
2016-06-09T05:22:29.147Z,8100
2016-06-09T05:23:29.400Z,7660
2016-06-09T05:24:28.716Z,7212
2016-06-09T05:25:29.188Z,6448
2016-06-09T05:26:29.238Z,5748
2016-06-09T05:27:29.663Z,5552
2016-06-09T05:28:29.071Z,6548
2016-06-09T05:29:29.091Z,7764
2016-06-09T05:30:29.282Z,8016
2016-06-09T05:31:29.285Z,8356
2016-06-09T05:32:29.944Z,9280
2016-06-09T05:33:30.603Z,10032
2016-06-09T05:34:29.825Z,9900
2016-06-09T05:36:28.846Z,10208
2016-06-09T05:37:29.537Z,10200
2016-06-09T05:38:29.524Z,10236
2016-06-09T05:39:29.388Z,9992
2016-06-09T05:40:29.078Z,10052
2016-06-09T05:41:30.019Z,9684
2016-06-09T05:42:43.881Z,9752
2016-06-09T05:43:29.836Z,10012
2016-06-09T05:44:29.387Z,9620
2016-06-09T05:45:29.639Z,9900
2016-06-09T05:46:29.612Z,9956
2016-06-09T05:47:29.849Z,10756
2016-06-09T05:48:29.508Z,10932
2016-06-09T05:49:29.652Z,10700
2016-06-09T05:50:30.639Z,10296
2016-06-09T05:51:29.705Z,10200
2016-06-09T05:53:29.492Z,11660
2016-06-09T05:54:29.543Z,12500
2016-06-09T05:55:29.515Z,12916
2016-06-09T05:56:29.720Z,11832
2016-06-09T05:57:29.521Z,12176
2016-06-09T05:58:29.618Z,13596
2016-06-09T05:59:29.542Z,12640
2016-06-09T06:00:29.827Z,13028
2016-06-09T06:01:29.471Z,12864
2016-06-09T06:02:29.864Z,11240
2016-06-09T06:03:29.634Z,9068
2016-06-09T06:04:31.026Z,8828
2016-06-09T06:05:43.904Z,9060
2016-06-09T06:06:43.704Z,10008
2016-06-09T06:07:29.660Z,10880
2016-06-09T06:08:29.679Z,11456
2016-06-09T06:09:29.698Z,10432
2016-06-09T06:10:29.873Z,8680
2016-06-09T06:11:44.189Z,8924
2016-06-09T06:12:30.161Z,9300
2016-06-09T06:13:43.820Z,8748
2016-06-09T06:14:29.557Z,8248
2016-06-09T06:15:29.935Z,8180
2016-06-09T06:16:29.954Z,7784
2016-06-09T06:17:29.988Z,7100
2016-06-09T06:18:29.805Z,7524
2016-06-09T06:19:29.792Z,8228
2016-06-09T06:20:30.639Z,8088
2016-06-09T06:21:29.814Z,8160
2016-06-09T06:22:44.207Z,8248
2016-06-09T06:23:32.976Z,7480
2016-06-09T06:24:30.119Z,6904
2016-06-09T06:25:30.091Z,6976
2016-06-09T06:26:30.391Z,7604
2016-06-09T06:27:30.097Z,7972
2016-06-09T06:28:29.944Z,7456
2016-06-09T06:29:30.354Z,7704
2016-06-09T06:30:29.620Z,8164
2016-06-09T06:31:29.937Z,8628
2016-06-09T06:32:29.940Z,9052
2016-06-09T06:33:44.038Z,9004
2016-06-09T06:34:30.181Z,8728
2016-06-09T06:35:30.403Z,8736
2016-06-09T06:38:29.988Z,9516
2016-06-09T06:39:30.259Z,9844
2016-06-09T06:41:29.606Z,11316
2016-06-09T06:42:30.346Z,11404
2016-06-09T06:43:31.928Z,11524
2016-06-09T06:44:30.100Z,12308
2016-06-09T06:45:29.665Z,13256
2016-06-09T06:46:30.152Z,12820
2016-06-09T06:47:30.358Z,12052
2016-06-09T06:48:30.331Z,11536
2016-06-09T06:49:30.115Z,12032
2016-06-09T06:50:30.243Z,12080
2016-06-09T06:51:30.184Z,13296
2016-06-09T06:52:30.186Z,12676
2016-06-09T06:53:31.833Z,12588
2016-06-09T06:54:30.365Z,14140
2016-06-09T06:55:31.027Z,15508
2016-06-09T06:56:30.874Z,15408
2016-06-09T06:57:30.421Z,14980
2016-06-09T06:58:30.580Z,15332
2016-06-09T06:59:30.256Z,16096
2016-06-09T07:00:30.290Z,16736
2016-06-09T07:01:30.261Z,16224
2016-06-09T07:02:30.295Z,14644
2016-06-09T07:03:30.299Z,14500
2016-06-09T07:04:30.318Z,14180
2016-06-09T07:05:30.413Z,14140
2016-06-09T07:06:30.355Z,13468
2016-06-09T07:07:30.561Z,12792
2016-06-09T07:08:30.814Z,11600
2016-06-09T07:09:44.648Z,11680
2016-06-09T07:10:30.836Z,12616
2016-06-09T07:11:30.402Z,14680
2016-06-09T07:12:30.623Z,16768
2016-06-09T07:13:32.191Z,16736
2016-06-09T07:14:30.660Z,15440
2016-06-09T07:15:30.461Z,16320
2016-06-09T07:16:30.525Z,18464
2016-06-09T07:17:30.483Z,18208
2016-06-09T07:18:30.485Z,17856
2016-06-09T07:19:44.601Z,17664
2016-06-09T07:20:30.757Z,17088
2016-06-09T07:21:30.526Z,16800
2016-06-09T07:22:30.748Z,16480
2016-06-09T07:23:31.532Z,15568
2016-06-09T07:24:30.425Z,15316
2016-06-09T07:25:30.632Z,15024
2016-06-09T07:26:30.573Z,14180
2016-06-09T07:27:30.607Z,13164
2016-06-09T07:28:31.079Z,12156
2016-06-09T07:29:30.628Z,12200
2016-06-09T07:30:30.616Z,12204
2016-06-09T07:31:30.651Z,12976
2016-06-09T07:32:30.669Z,13728
2016-06-09T07:33:30.703Z,14512
2016-06-09T07:34:30.690Z,14896
2016-06-09T07:35:30.881Z,14984
2016-06-09T07:36:31.103Z,14784
2016-06-09T07:37:30.919Z,14424
2016-06-09T07:38:30.734Z,14780
2016-06-09T07:39:30.581Z,14964
2016-06-09T07:40:31.021Z,14864
2016-06-09T07:41:45.074Z,15460
2016-06-09T07:42:30.293Z,15740
2016-06-09T07:43:44.627Z,15144
2016-06-09T07:44:31.596Z,14496
2016-06-09T07:45:45.103Z,15240
2016-06-09T07:46:31.040Z,15560
2016-06-09T07:47:30.840Z,17312
2016-06-09T07:48:31.421Z,18912
2016-06-09T07:49:30.877Z,18336
2016-06-09T07:50:31.005Z,18752
2016-06-09T07:51:44.966Z,15352
2016-06-09T07:52:31.341Z,13140
2016-06-09T07:53:32.811Z,14088
2016-06-09T07:54:31.346Z,14312
2016-06-09T07:55:30.442Z,16096
2016-06-09T07:56:30.962Z,16128
2016-06-09T07:57:31.012Z,14312
2016-06-09T07:58:31.187Z,12504
2016-06-09T07:59:31.439Z,11900
2016-06-09T08:00:31.208Z,11836
2016-06-09T08:01:30.555Z,11216
2016-06-09T08:02:30.589Z,11424
2016-06-09T08:03:31.061Z,11812
2016-06-09T08:04:31.283Z,12444
2016-06-09T08:05:31.567Z,13508
2016-06-09T08:06:31.321Z,14516
2016-06-09T08:07:31.089Z,15744
2016-06-09T08:08:31.124Z,16864
2016-06-09T08:09:31.174Z,16576
2016-06-09T08:10:31.160Z,16832
2016-06-09T08:11:31.180Z,16352
2016-06-09T08:12:31.605Z,14800
2016-06-09T08:13:32.029Z,15284
2016-06-09T08:14:31.236Z,15764
2016-06-09T08:15:31.206Z,14416
2016-06-09T08:16:31.460Z,13160
2016-06-09T08:17:31.229Z,13188
2016-06-09T08:19:31.282Z,14188
2016-06-09T08:20:32.630Z,14348
2016-06-09T08:21:31.350Z,13868
2016-06-09T08:22:31.292Z,14380
2016-06-09T08:23:31.528Z,15020
2016-06-09T08:24:31.579Z,16736
2016-06-09T08:25:31.381Z,18880
2016-06-09T08:26:31.379Z,20800
2016-06-09T08:27:31.441Z,22464
2016-06-09T08:28:31.517Z,23168
2016-06-09T08:29:31.548Z,23968
2016-06-09T08:30:32.014Z,24640
2016-06-09T08:31:31.923Z,25152
2016-06-09T08:32:31.583Z,25408
2016-06-09T08:33:31.710Z,25152
2016-06-09T08:34:31.744Z,24000
2016-06-09T08:35:33.027Z,23712
2016-06-09T08:36:31.771Z,23296
2016-06-09T08:37:31.811Z,23360
2016-06-09T08:38:31.819Z,22688
2016-06-09T08:39:45.913Z,22240
2016-06-09T08:40:31.585Z,22592
2016-06-09T08:41:31.887Z,22112
2016-06-09T08:42:31.908Z,20160
2016-06-09T08:43:32.179Z,17600
2016-06-09T08:44:32.325Z,17152
2016-06-09T08:45:32.000Z,18208
2016-06-09T08:46:31.989Z,19776
2016-06-09T08:47:46.450Z,20352
2016-06-09T08:48:34.372Z,20608
2016-06-09T08:49:32.079Z,21024
2016-06-09T08:50:32.036Z,22304
2016-06-09T08:51:32.008Z,21952
2016-06-09T08:52:32.026Z,21248
2016-06-09T08:53:34.812Z,21792
2016-06-09T08:54:32.066Z,22304
2016-06-09T08:55:32.069Z,22208
2016-06-09T08:56:32.120Z,21248
2016-06-09T08:57:32.340Z,20256
2016-06-09T08:58:34.422Z,19360
2016-06-09T08:59:32.191Z,19456
2016-06-09T09:00:32.006Z,20288
2016-06-09T09:01:32.399Z,20960
2016-06-09T09:02:32.215Z,21216
2016-06-09T09:03:32.655Z,21600
2016-06-09T09:04:32.424Z,21632
2016-06-09T09:05:32.412Z,22272
2016-06-09T09:06:32.431Z,22592
2016-06-09T09:07:32.653Z,23232
2016-06-09T09:08:33.093Z,22816
2016-06-09T09:09:32.284Z,22432
2016-06-09T09:10:32.490Z,22848
2016-06-09T09:11:32.509Z,23296
2016-06-09T09:12:31.855Z,23904
2016-06-09T09:13:46.284Z,24768
2016-06-09T09:14:32.612Z,24544
2016-06-09T09:15:32.428Z,24512
2016-06-09T09:17:32.449Z,22880
2016-06-09T09:18:32.655Z,21088
2016-06-09T09:19:32.455Z,19040
2016-06-09T09:20:33.005Z,18272
2016-06-09T09:21:32.977Z,17792
2016-06-09T09:22:32.464Z,17184
2016-06-09T09:23:32.530Z,16320
2016-06-09T09:24:32.501Z,15968
2016-06-09T09:25:33.004Z,17216
2016-06-09T09:26:32.554Z,18688
2016-06-09T09:27:32.948Z,19968
2016-06-09T09:30:32.644Z,21216
2016-06-09T09:32:32.822Z,21120
2016-06-09T09:33:32.872Z,21376
2016-06-09T09:34:33.079Z,19712
2016-06-09T09:35:32.692Z,18688
2016-06-09T09:36:32.898Z,17984
2016-06-09T09:37:46.780Z,19648
2016-06-09T09:38:32.749Z,19840
2016-06-09T09:39:32.735Z,19264
2016-06-09T09:40:33.019Z,18656
2016-06-09T09:41:32.788Z,20160
2016-06-09T09:42:32.823Z,21088
2016-06-09T09:43:46.876Z,18912
2016-06-09T09:44:47.301Z,19104
2016-06-09T09:45:32.816Z,20256
2016-06-09T09:46:32.835Z,21440
2016-06-09T09:47:33.119Z,20864
2016-06-09T09:49:33.063Z,18944
2016-06-09T09:50:33.253Z,19072
2016-06-09T09:51:32.929Z,19072
2016-06-09T09:52:32.932Z,19616
2016-06-09T09:53:32.950Z,20320
2016-06-09T09:54:33.203Z,21056
2016-06-09T09:55:33.004Z,21664
2016-06-09T09:56:33.241Z,22016
2016-06-09T09:57:32.993Z,22048
2016-06-09T09:58:33.263Z,21920
2016-06-09T09:59:33.030Z,21888
2016-06-09T10:00:33.222Z,21600
2016-06-09T10:01:33.303Z,22080
2016-06-09T10:02:33.009Z,21408
2016-06-09T10:03:33.121Z,20480
2016-06-09T10:04:32.796Z,20000
2016-06-09T10:05:33.924Z,19936
2016-06-09T10:06:33.834Z,19552
2016-06-09T10:07:33.649Z,19488
2016-06-09T10:08:47.250Z,19008
2016-06-09T10:09:47.674Z,19392
2016-06-09T10:10:33.455Z,19040
2016-06-09T10:11:33.225Z,20096
2016-06-09T10:12:33.243Z,21248
2016-06-09T10:13:33.262Z,23808
2016-06-09T10:14:32.999Z,26688
2016-06-09T10:15:33.721Z,29728
2016-06-09T10:16:33.318Z,41280
2016-06-09T10:17:33.321Z,68768
2016-06-09T10:18:33.058Z,67680
2016-06-09T10:19:33.545Z,54880
2016-06-09T10:20:33.939Z,39744
2016-06-09T10:21:34.115Z,46688
2016-06-09T10:22:33.617Z,19968
2016-06-09T10:23:33.652Z,23232
2016-06-09T10:24:33.093Z,19456
2016-06-09T10:25:33.501Z,19008
2016-06-09T10:26:34.129Z,18560
2016-06-09T10:27:33.695Z,17728
2016-06-09T10:28:33.495Z,16640
2016-06-09T10:29:33.358Z,16928
2016-06-09T10:30:33.751Z,17888
2016-06-09T10:31:33.755Z,18816
2016-06-09T10:32:47.151Z,19616
2016-06-09T10:33:33.635Z,21472
2016-06-09T10:34:33.591Z,21728
2016-06-09T10:35:33.688Z,21376
2016-06-09T10:36:34.505Z,20896
2016-06-09T10:37:33.663Z,21888
2016-06-09T10:38:33.666Z,21728
2016-06-09T10:39:33.669Z,23456
2016-06-09T10:40:33.517Z,21472
2016-06-09T10:42:33.726Z,21664
2016-06-09T10:43:33.307Z,21536
2016-06-09T10:44:34.216Z,18048
2016-06-09T10:45:34.047Z,15848
2016-06-09T10:47:33.819Z,17440
2016-06-09T10:48:34.041Z,18880
2016-06-09T10:49:34.060Z,19616
2016-06-09T10:50:33.750Z,21248
2016-06-09T10:51:33.488Z,20448
2016-06-09T10:52:33.897Z,19360
2016-06-09T10:53:33.900Z,19392
2016-06-09T10:54:33.935Z,20000
2016-06-09T10:55:33.921Z,20960
2016-06-09T10:56:33.941Z,22112
2016-06-09T10:57:33.959Z,23136
2016-06-09T10:58:33.978Z,23040
2016-06-09T10:59:33.981Z,19712
2016-06-09T11:00:34.032Z,17408
2016-06-09T11:01:34.096Z,17440
2016-06-09T11:02:34.085Z,18624
2016-06-09T11:03:33.587Z,16992
2016-06-09T11:04:34.700Z,16384
2016-06-09T11:05:34.125Z,15848
2016-06-09T11:06:33.721Z,16224
2016-06-09T11:07:34.131Z,16672
2016-06-09T11:08:48.449Z,16704
2016-06-09T11:09:33.684Z,17152
2016-06-09T11:10:34.202Z,17856
2016-06-09T11:11:34.252Z,18432
2016-06-09T11:12:34.318Z,18720
2016-06-09T11:13:34.274Z,19968
2016-06-09T11:14:34.246Z,20160
2016-06-09T11:15:34.311Z,21408
2016-06-09T11:16:34.267Z,22656
2016-06-09T11:17:34.286Z,23424
2016-06-09T11:18:34.742Z,20768
2016-06-09T11:19:34.355Z,17824
2016-06-09T11:20:34.623Z,18048
2016-06-09T11:21:34.768Z,18144
2016-06-09T11:23:34.571Z,16480
2016-06-09T11:24:34.417Z,18208
2016-06-09T11:25:34.420Z,18368
2016-06-09T11:26:34.658Z,18240
2016-06-09T11:27:34.442Z,17888
2016-06-09T11:28:34.477Z,17120
2016-06-09T11:29:34.479Z,16864
2016-06-09T11:30:35.014Z,16864
2016-06-09T11:31:34.516Z,16992
2016-06-09T11:32:34.738Z,17952
2016-06-09T11:33:34.789Z,18208
2016-06-09T11:34:34.589Z,19776
2016-06-09T11:35:34.607Z,22144
2016-06-09T11:36:34.548Z,22496
2016-06-09T11:37:35.207Z,20704
2016-06-09T11:38:33.992Z,18752
2016-06-09T11:39:34.635Z,19104
2016-06-09T11:40:34.826Z,18912
2016-06-09T11:41:34.955Z,18784
2016-06-09T11:42:34.191Z,18688
2016-06-09T11:43:34.711Z,18304
2016-06-09T11:44:34.729Z,18720
2016-06-09T11:45:34.732Z,18144
2016-06-09T11:46:34.767Z,18464
2016-06-09T11:47:34.879Z,19392
2016-06-09T11:48:34.804Z,20768
2016-06-09T11:49:34.993Z,22240
2016-06-09T11:50:34.857Z,22176
2016-06-09T11:51:35.375Z,21152
2016-06-09T11:52:34.894Z,21216
2016-06-09T11:53:34.897Z,20576
2016-06-09T11:54:34.901Z,20032
2016-06-09T11:55:35.137Z,19264
2016-06-09T11:56:35.188Z,18816
2016-06-09T11:58:34.991Z,18336
2016-06-09T11:59:35.353Z,18368
2016-06-09T12:00:34.512Z,18400
2016-06-09T12:01:35.000Z,18176
2016-06-09T12:02:35.003Z,17504
2016-06-09T12:03:35.287Z,18272
2016-06-09T12:04:35.275Z,17920
2016-06-09T12:05:48.828Z,16736
2016-06-09T12:06:36.437Z,16640
2016-06-09T12:07:35.081Z,16544
2016-06-09T12:08:35.537Z,16032
2016-06-09T12:09:35.133Z,15648
2016-06-09T12:10:35.340Z,15044
2016-06-09T12:11:35.172Z,14880
2016-06-09T12:12:36.517Z,14432
2016-06-09T12:13:35.224Z,14292
2016-06-09T12:14:35.070Z,14360
2016-06-09T12:15:35.231Z,14636
2016-06-09T12:16:36.093Z,14632
2016-06-09T12:17:49.568Z,13728
2016-06-09T12:18:35.521Z,14504
2016-06-09T12:19:49.386Z,14608
2016-06-09T12:20:35.308Z,14956
2016-06-09T12:21:36.202Z,15520
2016-06-09T12:22:35.361Z,16160
2016-06-09T12:23:35.755Z,16512
2016-06-09T12:24:35.462Z,17056
2016-06-09T12:25:35.604Z,16960
2016-06-09T12:26:35.421Z,16576
2016-06-09T12:27:49.504Z,15776
2016-06-09T12:28:35.457Z,15552
2016-06-09T12:29:35.477Z,15520
2016-06-09T12:30:35.323Z,15296
2016-06-09T12:31:35.483Z,15424
2016-06-09T12:32:35.517Z,15936
2016-06-09T12:33:35.520Z,15776
2016-06-09T12:34:35.773Z,15168
2016-06-09T12:36:36.092Z,12416
2016-06-09T12:37:35.814Z,12476
2016-06-09T12:38:35.645Z,12300
2016-06-09T12:39:35.647Z,11184
2016-06-09T12:40:35.666Z,11812
2016-06-09T12:41:35.670Z,10980
2016-06-09T12:42:35.673Z,11348
2016-06-09T12:43:35.926Z,11300
2016-06-09T12:44:35.945Z,11036
2016-06-09T12:45:35.244Z,11080
2016-06-09T12:46:35.497Z,11008
2016-06-09T12:47:35.969Z,11148
2016-06-09T12:48:50.116Z,11280
2016-06-09T12:49:35.991Z,11392
2016-06-09T12:50:35.729Z,11520
2016-06-09T12:51:37.060Z,11508
2016-06-09T12:52:50.143Z,11732
2016-06-09T12:53:36.284Z,12052
2016-06-09T12:54:35.896Z,12596
2016-06-09T12:55:35.947Z,13544
2016-06-09T12:56:35.918Z,13992
2016-06-09T12:57:36.125Z,13440
2016-06-09T12:58:36.128Z,12572
2016-06-09T12:59:36.006Z,11924
2016-06-09T13:00:36.181Z,11528
2016-06-09T13:01:36.200Z,11456
2016-06-09T13:02:36.203Z,11444
2016-06-09T13:03:36.034Z,11228
2016-06-09T13:05:36.088Z,11044
2016-06-09T13:06:36.700Z,11000
2016-06-09T13:07:36.312Z,10908
2016-06-09T13:08:36.112Z,10832
2016-06-09T13:09:36.317Z,10820
2016-06-09T13:10:36.134Z,10936
2016-06-09T13:11:36.028Z,10420
2016-06-09T13:12:36.234Z,10856
2016-06-09T13:13:36.252Z,11040
2016-06-09T13:14:36.662Z,11116
2016-06-09T13:15:36.056Z,11496
2016-06-09T13:16:36.668Z,11388
2016-06-09T13:17:36.483Z,11516
2016-06-09T13:18:36.253Z,11408
2016-06-09T13:19:36.506Z,11240
2016-06-09T13:20:36.290Z,11420
2016-06-09T13:21:36.901Z,11840
2016-06-09T13:22:36.358Z,12084
2016-06-09T13:23:36.579Z,11764
2016-06-09T13:24:36.098Z,11524
2016-06-09T13:25:36.852Z,9456
2016-06-09T13:26:36.433Z,10668
2016-06-09T13:27:36.436Z,10588
2016-06-09T13:28:36.861Z,10424
2016-06-09T13:29:36.537Z,10264
2016-06-09T13:30:36.696Z,10300
2016-06-09T13:32:36.498Z,11132
2016-06-09T13:33:50.599Z,11768
2016-06-09T13:34:36.520Z,12384
2016-06-09T13:35:36.570Z,12520
2016-06-09T13:36:36.667Z,13604
2016-06-09T13:37:36.576Z,13748
2016-06-09T13:38:36.595Z,13924
2016-06-09T13:39:51.179Z,13112
2016-06-09T13:40:36.648Z,10688
2016-06-09T13:43:36.376Z,9936
2016-06-09T13:44:36.910Z,10412
2016-06-09T13:45:36.694Z,12300
2016-06-09T13:46:36.714Z,12376
2016-06-09T13:47:36.654Z,11356
2016-06-09T13:48:36.813Z,11532
2016-06-09T13:49:36.988Z,12944
2016-06-09T13:50:36.834Z,11692
2016-06-09T13:51:37.587Z,13620
2016-06-09T13:52:36.841Z,12176
2016-06-09T13:53:37.063Z,12856
2016-06-09T13:54:37.081Z,13700
2016-06-09T13:55:36.866Z,11156
2016-06-09T13:57:36.404Z,9744
2016-06-09T13:58:36.923Z,10192
2016-06-09T13:59:36.910Z,11320
2016-06-09T14:00:36.804Z,12564
2016-06-09T14:01:37.227Z,12372
2016-06-09T14:03:37.202Z,11212
2016-06-09T14:04:37.019Z,11396
2016-06-09T14:05:37.069Z,11464
2016-06-09T14:06:37.259Z,11336
2016-06-09T14:07:51.187Z,11112
2016-06-09T14:08:37.078Z,11012
2016-06-09T14:09:36.346Z,10804
2016-06-09T14:10:37.163Z,11728
2016-06-09T14:11:37.603Z,11324
2016-06-09T14:12:37.418Z,10060
2016-06-09T14:13:37.155Z,9632
2016-06-09T14:14:37.362Z,8780
2016-06-09T14:15:51.493Z,8420
2016-06-09T14:16:37.431Z,8820
2016-06-09T14:17:37.621Z,9752
2016-06-09T14:18:37.343Z,12756
2016-06-09T14:19:37.455Z,14432
2016-06-09T14:20:37.255Z,13844
2016-06-09T14:21:39.102Z,11764
2016-06-09T14:22:37.528Z,12676
2016-06-09T14:23:37.342Z,13420
2016-06-09T14:24:51.817Z,16416
2016-06-09T14:25:37.614Z,17920
2016-06-09T14:26:37.601Z,18560
2016-06-09T14:27:37.371Z,18688
2016-06-09T14:28:37.405Z,19264
2016-06-09T14:29:37.486Z,21536
2016-06-09T14:30:37.849Z,22720
2016-06-09T14:31:37.633Z,23520
2016-06-09T14:32:37.683Z,14832
2016-06-09T14:33:37.311Z,12964
2016-06-09T14:34:37.517Z,13964
2016-06-09T14:35:37.504Z,14056
2016-06-09T14:36:52.307Z,18496
2016-06-09T14:37:38.401Z,18816
2016-06-09T14:38:51.610Z,18624
2016-06-09T14:39:38.798Z,13932
2016-06-09T14:40:37.614Z,13976
2016-06-09T14:41:37.805Z,13760
2016-06-09T14:42:37.620Z,13672
2016-06-09T14:43:38.028Z,13964
2016-06-09T14:44:37.734Z,14248
2016-06-09T14:45:37.926Z,14752
2016-06-09T14:46:37.929Z,16160
2016-06-09T14:47:38.119Z,16672
2016-06-09T14:48:37.591Z,16608
2016-06-09T14:49:37.423Z,15936
2016-06-09T14:50:52.038Z,15936
2016-06-09T14:51:38.116Z,15240
2016-06-09T14:52:37.151Z,16000
2016-06-09T14:53:38.184Z,16064
2016-06-09T14:54:38.390Z,15584
2016-06-09T14:55:38.018Z,17536
2016-06-09T14:56:51.932Z,18272
2016-06-09T14:57:37.916Z,18752
2016-06-09T14:58:38.075Z,18528
2016-06-09T14:59:37.891Z,18240
2016-06-09T15:00:38.175Z,17984
2016-06-09T15:01:38.272Z,17312
2016-06-09T15:02:38.025Z,16032
2016-06-09T15:04:37.968Z,15616
2016-06-09T15:05:38.410Z,15584
2016-06-09T15:06:38.021Z,16704
2016-06-09T15:07:38.213Z,16000
2016-06-09T15:08:37.590Z,16416
2016-06-09T15:09:37.625Z,16224
2016-06-09T15:10:38.159Z,16416
2016-06-09T15:11:38.115Z,16640
2016-06-09T15:12:38.665Z,16960
2016-06-09T15:13:38.137Z,16960
2016-06-09T15:14:38.187Z,17472
2016-06-09T15:15:38.377Z,19648
2016-06-09T15:16:38.209Z,19744
2016-06-09T15:17:38.228Z,18240
2016-06-09T15:18:38.230Z,18528
2016-06-09T15:19:38.311Z,16480
2016-06-09T15:20:38.314Z,16224
2016-06-09T15:21:38.161Z,15840
2016-06-09T15:22:38.696Z,16128
2016-06-09T15:23:37.809Z,16480
2016-06-09T15:24:38.312Z,16128
2016-06-09T15:25:38.360Z,16128
2016-06-09T15:26:38.786Z,16704
2016-06-09T15:27:38.602Z,18624
2016-06-09T15:28:38.370Z,15400
2016-06-09T15:29:38.795Z,15500
2016-06-09T15:30:38.455Z,15936
2016-06-09T15:31:38.615Z,18016
2016-06-09T15:32:38.898Z,16704
2016-06-09T15:33:38.465Z,17632
2016-06-09T15:34:38.513Z,15296
2016-06-09T15:35:38.532Z,15164
2016-06-09T15:36:38.332Z,14860
2016-06-09T15:37:39.352Z,14652
2016-06-09T15:38:38.589Z,15968
2016-06-09T15:39:38.983Z,16128
2016-06-09T15:40:38.642Z,16448
2016-06-09T15:41:38.582Z,16832
2016-06-09T15:42:38.601Z,16768
2016-06-09T15:43:38.635Z,16416
2016-06-09T15:44:38.857Z,16288
2016-06-09T15:45:38.672Z,15872
2016-06-09T15:46:38.926Z,15288
2016-06-09T15:47:39.398Z,16512
2016-06-09T15:48:38.931Z,15840
2016-06-09T15:49:38.778Z,15360
2016-06-09T15:50:38.767Z,13108
2016-06-09T15:51:38.769Z,12636
2016-06-09T15:52:38.788Z,12188
2016-06-09T15:53:39.229Z,11644
2016-06-09T15:54:38.841Z,11324
2016-06-09T15:55:38.860Z,11440
2016-06-09T15:56:53.131Z,12024
2016-06-09T15:57:39.163Z,13200
2016-06-09T15:58:38.869Z,13164
2016-06-09T15:59:39.059Z,12788
2016-06-09T16:00:38.907Z,11892
2016-06-09T16:01:38.941Z,12164
2016-06-09T16:02:38.788Z,12096
2016-06-09T16:03:38.962Z,13160
2016-06-09T16:04:39.794Z,13840
2016-06-09T16:05:38.983Z,14104
2016-06-09T16:06:39.034Z,14312
2016-06-09T16:07:39.631Z,14144
2016-06-09T16:08:39.103Z,13564
2016-06-09T16:09:53.124Z,13136
2016-06-09T16:10:39.093Z,13176
2016-06-09T16:11:39.518Z,13120
2016-06-09T16:12:40.349Z,13028
2016-06-09T16:13:39.134Z,12696
2016-06-09T16:14:39.574Z,12080
2016-06-09T16:15:39.156Z,11176
2016-06-09T16:16:53.474Z,10332
2016-06-09T16:17:39.177Z,9832
2016-06-09T16:18:39.212Z,9240
2016-06-09T16:19:39.292Z,9132
2016-06-09T16:20:39.515Z,9492
2016-06-09T16:21:53.536Z,9196
2016-06-09T16:22:39.818Z,9068
2016-06-09T16:23:53.371Z,8980
2016-06-09T16:24:39.496Z,8760
2016-06-09T16:25:39.545Z,8640
2016-06-09T16:26:39.736Z,8460
2016-06-09T16:27:53.633Z,8836
2016-06-09T16:28:39.258Z,9104
2016-06-09T16:29:39.371Z,9628
2016-06-09T16:30:39.858Z,10148
2016-06-09T16:31:39.268Z,10460
2016-06-09T16:32:39.849Z,10748
2016-06-09T16:33:39.508Z,11368
2016-06-09T16:34:54.139Z,11612
2016-06-09T16:35:39.326Z,11260
2016-06-09T16:36:39.908Z,10604
2016-06-09T16:37:39.629Z,9864
2016-06-09T16:38:39.710Z,9296
2016-06-09T16:39:39.511Z,8620
2016-06-09T16:40:39.576Z,8028
2016-06-09T16:41:39.532Z,7540
2016-06-09T16:42:39.755Z,7324
2016-06-09T16:43:39.570Z,7108
2016-06-09T16:44:39.353Z,7020
2016-06-09T16:45:39.606Z,6952
2016-06-09T16:46:39.626Z,7016
2016-06-09T16:47:39.645Z,7276
2016-06-09T16:48:54.151Z,7568
2016-06-09T16:49:39.869Z,7604
2016-06-09T16:50:39.904Z,7064
2016-06-09T16:51:39.704Z,6956
2016-06-09T16:52:40.097Z,7272
2016-06-09T16:53:39.726Z,7104
2016-06-09T16:54:39.806Z,6860
2016-06-09T16:55:39.795Z,6792
2016-06-09T16:56:39.765Z,6848
2016-06-09T16:57:40.441Z,7368
2016-06-09T16:58:39.835Z,8456
2016-06-09T16:59:40.009Z,9352
2016-06-09T17:02:39.894Z,9844
2016-06-09T17:03:39.866Z,9776
2016-06-09T17:04:40.306Z,9880
2016-06-09T17:06:39.921Z,10016
2016-06-09T17:07:41.160Z,9620
2016-06-09T17:08:39.474Z,9336
2016-06-09T17:09:39.947Z,8940
2016-06-09T17:10:39.981Z,8404
2016-06-09T17:11:54.249Z,7780
2016-06-09T17:12:40.237Z,7072
2016-06-09T17:13:54.099Z,6652
2016-06-09T17:14:40.025Z,6464
2016-06-09T17:15:40.074Z,6672
2016-06-09T17:16:40.296Z,7132
2016-06-09T17:17:40.346Z,8260
2016-06-09T17:18:40.506Z,9660
2016-06-09T17:19:40.509Z,10796
2016-06-09T17:20:40.730Z,11308
2016-06-09T17:21:54.468Z,11148
2016-06-09T17:22:40.581Z,10648
2016-06-09T17:23:41.255Z,9532
2016-06-09T17:24:40.196Z,8468
2016-06-09T17:25:40.589Z,7952
2016-06-09T17:26:40.405Z,8032
2016-06-09T17:27:40.220Z,8120
2016-06-09T17:28:40.239Z,7612
2016-06-09T17:29:40.274Z,7136
2016-06-09T17:30:40.886Z,6824
2016-06-09T17:31:40.259Z,6508
2016-06-09T17:32:40.773Z,6320
2016-06-09T17:33:40.599Z,6196
2016-06-09T17:34:41.160Z,6220
2016-06-09T17:35:40.486Z,6088
2016-06-09T17:36:40.555Z,5944
2016-06-09T17:37:54.667Z,5980
2016-06-09T17:38:40.310Z,6016
2016-06-09T17:39:40.469Z,6104
2016-06-09T17:40:40.690Z,6252
2016-06-09T17:41:40.908Z,6424
2016-06-09T17:42:40.760Z,6748
2016-06-09T17:43:40.270Z,7268
2016-06-09T17:44:40.778Z,7832
2016-06-09T17:45:41.006Z,8068
2016-06-09T17:46:41.388Z,7980
2016-06-09T17:47:40.815Z,7740
2016-06-09T17:48:41.023Z,7456
2016-06-09T17:49:41.028Z,7164
2016-06-09T17:50:40.830Z,6968
2016-06-09T17:51:40.897Z,6752
2016-06-09T17:52:41.666Z,6420
2016-06-09T17:53:41.421Z,6080
2016-06-09T17:54:41.127Z,5796
2016-06-09T17:55:40.943Z,5468
2016-06-09T17:57:40.935Z,4872
2016-06-09T17:58:41.048Z,4636
2016-06-09T17:59:40.973Z,4508
2016-06-09T18:00:41.071Z,4420
2016-06-09T18:01:41.371Z,4324
2016-06-09T18:02:41.029Z,4284
2016-06-09T18:03:41.127Z,4228
2016-06-09T18:04:41.083Z,4224
2016-06-09T18:05:41.086Z,4208
2016-06-09T18:06:41.057Z,4116
2016-06-09T18:07:41.577Z,3920
2016-06-09T18:08:42.423Z,3648
2016-06-09T18:09:41.316Z,3360
2016-06-09T18:10:41.101Z,3160
2016-06-09T18:11:41.777Z,3048
2016-06-09T18:13:41.376Z,2848
2016-06-09T18:14:41.207Z,2760
2016-06-09T18:15:55.678Z,2692
2016-06-09T18:16:41.323Z,2664
2016-06-09T18:17:41.326Z,2632
